KFMN/FMN METAR and TAF weather

Enter ICAO airport designator
Station Type Date Time Source
KFMN METAR 2019/09/21 20:53 UTC NOAA

KFMN 212053Z 31007KT 10SM CLR 24/M05 A3003 RMK AO2 SLP128 T02441050 58021


Station Type Date Time Source
KFMN Decoded METAR 2019/09/21 20:53 UTC NOAA

FARMINGTON FOUR CORNERS, NM, United States (KFMN) 36-45N 108-14W 1685M
Sep 21, 2019 - 04:53 PM EDT / 2019.09.21 2053 UTC
Wind: from the NW (310 degrees) at 8 MPH (7 KT):0
Visibility: 10 mile(s):0
Sky conditions: clear
Temperature: 75.9 F (24.4 C)
Dew Point: 23.0 F (-5.0 C)
Relative Humidity: 13%
Pressure (altimeter): 30.03 in. Hg (1016 hPa)
Pressure tendency: 0.06 inches (2.1 hPa) lower than three hours ago
ob: KFMN 212053Z 31007KT 10SM CLR 24/M05 A3003 RMK AO2 SLP128 T02441050 58021
cycle: 21

Station Type Date Time Source
KFMN TAF 2019/09/21 18:30 UTC NOAA

TAF KFMN 211729Z 2118/2218 23007KT P6SM SKC
FM212100 28012G18KT P6SM SKC
FM220100 VRB06KT P6SM SKC
FM220700 09007KT P6SM SKC

Example: see airport list